Time;durP1;ratioP1;P1;durP2;ratioP2;P2;SDS_P1;SDS_P2;PMS_P1;PMS_P2;Temp;Humidity;BMP_temperature;BMP_pressure;BME280_temperature;BME280_humidity;BME280_pressure;Samples;Min_cycle;Max_cycle;Signal;HPM_P1;HPM_P2
2021/12/25 00:01:22;;;;;;;;;46.75;39.75;;;;;;;;5043227;28;10715;-77
2021/12/25 00:03:51;;;;;;;;;42.75;39.25;;;;;;;;5041506;28;10911;-79
2021/12/25 00:06:20;;;;;;;;;45.75;40.50;;;;;;;;5039666;28;10774;-83
2021/12/25 00:08:48;;;;;;;;;23.50;21.50;;;;;;;;5041566;28;11621;-81
2021/12/25 00:11:15;;;;;;;;;44.75;40.00;;;;;;;;5039596;28;10732;-82
2021/12/25 00:13:44;;;;;;;;;41.25;39.25;;;;;;;;5041499;28;10910;-80
2021/12/25 00:16:13;;;;;;;;;47.50;39.75;;;;;;;;5034051;28;10849;-80
2021/12/25 00:18:41;;;;;;;;;44.75;38.75;;;;;;;;5043000;28;10895;-78
2021/12/25 00:21:09;;;;;;;;;40.25;35.75;;;;;;;;5038092;28;11094;-81
2021/12/25 00:23:39;;;;;;;;;34.50;32.75;;;;;;;;5045937;28;10832;-78
2021/12/25 00:26:11;;;;;;;;;40.75;35.25;;;;;;;;5043129;28;10808;-81
2021/12/25 00:28:54;;;;;;;;;33.50;33.50;;;;;;;;5045804;28;10964;-77
2021/12/25 00:31:31;;;;;;;;;42.50;37.50;;;;;;;;5046412;28;10519;-82
2021/12/25 00:34:00;;;;;;;;;41.75;39.00;;;;;;;;5044083;28;10717;-81
2021/12/25 00:36:28;;;;;;;;;39.25;33.75;;;;;;;;5047026;28;10993;-81
2021/12/25 00:38:57;;;;;;;;;50.50;41.75;;;;;;;;5046717;28;10742;-79
2021/12/25 00:41:25;;;;;;;;;42.00;36.50;;;;;;;;5047224;28;11731;-81
2021/12/25 00:43:53;;;;;;;;;44.00;38.00;;;;;;;;5038675;28;10669;-80
2021/12/25 00:46:20;;;;;;;;;48.00;42.50;;;;;;;;5046350;28;11002;-79
2021/12/25 00:48:48;;;;;;;;;40.75;36.75;;;;;;;;5043344;28;10736;-81
2021/12/25 00:51:16;;;;;;;;;45.25;37.50;;;;;;;;5044682;28;10703;-82
2021/12/25 00:53:43;;;;;;;;;45.25;39.00;;;;;;;;5043951;28;10828;-82
2021/12/25 00:56:12;;;;;;;;;43.50;38.75;;;;;;;;5041346;28;10882;-78
2021/12/25 00:58:39;;;;;;;;;43.50;39.00;;;;;;;;5040420;28;10760;-80
2021/12/25 01:01:07;;;;;;;;;45.50;40.00;;;;;;;;5044664;28;10789;-79
2021/12/25 01:03:34;;;;;;;;;30.75;30.50;;;;;;;;5040236;28;10760;-77
2021/12/25 01:06:01;;;;;;;;;38.75;35.50;;;;;;;;5046254;28;10589;-78
2021/12/25 01:08:31;;;;;;;;;43.75;35.75;;;;;;;;5040834;28;10706;-80
2021/12/25 01:10:59;;;;;;;;;35.75;32.50;;;;;;;;5045073;28;10580;-77
2021/12/25 01:13:31;;;;;;;;;43.75;38.75;;;;;;;;5034340;28;10846;-79
2021/12/25 01:16:13;;;;;;;;;30.00;27.50;;;;;;;;5046838;28;10799;-79
2021/12/25 01:19:06;;;;;;;;;43.00;39.25;;;;;;;;5041346;28;10604;-81
2021/12/25 01:21:54;;;;;;;;;36.50;32.50;;;;;;;;5042083;28;10693;-82
2021/12/25 01:30:09;;;;;;;;;31.75;29.75;;;;;;;;5026535;28;10643;-81
2021/12/25 01:33:00;;;;;;;;;31.50;30.75;;;;;;;;5042397;28;11227;-78
2021/12/25 01:35:56;;;;;;;;;37.75;33.75;;;;;;;;5044930;28;10464;-78
2021/12/25 01:38:48;;;;;;;;;19.75;18.00;;;;;;;;5040952;28;10522;-81
2021/12/25 01:41:27;;;;;;;;;26.25;26.25;;;;;;;;5040508;28;10351;-79
2021/12/25 01:49:31;;;;;;;;;36.50;34.25;;;;;;;;5041648;28;10146;-78
2021/12/25 01:51:59;;;;;;;;;29.50;26.00;;;;;;;;5039060;28;10798;-81
2021/12/25 01:54:26;;;;;;;;;27.50;27.50;;;;;;;;5045446;28;10216;-82
2021/12/25 01:56:56;;;;;;;;;29.75;29.75;;;;;;;;5043274;28;10169;-85
2021/12/25 01:59:23;;;;;;;;;29.75;27.50;;;;;;;;5043203;28;10178;-82
2021/12/25 02:01:52;;;;;;;;;31.25;31.25;;;;;;;;5034283;28;10071;-82
2021/12/25 02:04:20;;;;;;;;;31.50;27.00;;;;;;;;5040251;28;10137;-75
2021/12/25 02:06:47;;;;;;;;;34.00;29.25;;;;;;;;5045021;28;10164;-76
2021/12/25 02:09:14;;;;;;;;;30.00;29.00;;;;;;;;5040621;28;10279;-81
2021/12/25 02:11:41;;;;;;;;;34.00;30.25;;;;;;;;5045968;28;10247;-77
2021/12/25 02:14:09;;;;;;;;;35.75;30.75;;;;;;;;5039176;28;10220;-79
2021/12/25 02:16:50;;;;;;;;;30.00;24.75;;;;;;;;5044476;28;10337;-77
2021/12/25 02:19:31;;;;;;;;;29.50;27.50;;;;;;;;5037461;28;10108;-80
2021/12/25 02:22:02;;;;;;;;;26.25;25.00;;;;;;;;5037968;28;10430;-81
2021/12/25 02:24:29;;;;;;;;;33.75;31.00;;;;;;;;5045678;28;10485;-82
2021/12/25 02:26:57;;;;;;;;;40.75;33.50;;;;;;;;5039434;28;10369;-81
2021/12/25 02:29:25;;;;;;;;;33.00;32.00;;;;;;;;5044609;28;10396;-79
2021/12/25 02:31:52;;;;;;;;;32.50;28.50;;;;;;;;5043475;28;10470;-80
2021/12/25 02:34:19;;;;;;;;;38.25;33.50;;;;;;;;5035841;28;10420;-81
2021/12/25 02:36:47;;;;;;;;;35.50;29.25;;;;;;;;5038910;28;10445;-79
2021/12/25 02:39:16;;;;;;;;;32.50;31.25;;;;;;;;5043282;28;10295;-81
2021/12/25 02:41:44;;;;;;;;;33.50;30.00;;;;;;;;5044512;28;10418;-82
2021/12/25 02:44:11;;;;;;;;;25.75;25.75;;;;;;;;5039406;28;10487;-83
2021/12/25 02:46:39;;;;;;;;;31.75;25.75;;;;;;;;5044272;28;10514;-79
2021/12/25 02:49:12;;;;;;;;;39.75;35.75;;;;;;;;5028224;28;10460;-81
2021/12/25 02:51:39;;;;;;;;;39.75;35.00;;;;;;;;5041253;28;10611;-83
2021/12/25 02:54:07;;;;;;;;;36.00;34.00;;;;;;;;5036479;28;10940;-79
2021/12/25 02:56:36;;;;;;;;;32.00;32.00;;;;;;;;5038592;28;10446;-82
2021/12/25 02:59:03;;;;;;;;;23.75;21.75;;;;;;;;5043209;28;10495;-80
2021/12/25 03:01:30;;;;;;;;;30.50;28.25;;;;;;;;5035299;28;10154;-81
2021/12/25 03:03:58;;;;;;;;;28.00;26.75;;;;;;;;5038283;28;10286;-81
2021/12/25 03:06:25;;;;;;;;;27.75;27.75;;;;;;;;5040602;28;10260;-83
2021/12/25 03:08:53;;;;;;;;;21.00;18.50;;;;;;;;5042191;28;10274;-83
2021/12/25 03:11:20;;;;;;;;;30.00;28.00;;;;;;;;5032127;28;10143;-82
2021/12/25 03:13:59;;;;;;;;;35.00;27.25;;;;;;;;5041002;28;11070;-82
2021/12/25 03:16:28;;;;;;;;;23.50;22.00;;;;;;;;5043432;28;10295;-82
2021/12/25 03:18:58;;;;;;;;;27.00;25.75;;;;;;;;5043642;28;10223;-81
2021/12/25 03:21:25;;;;;;;;;23.50;22.75;;;;;;;;5044041;28;10290;-78
2021/12/25 03:23:53;;;;;;;;;30.50;25.00;;;;;;;;5040115;28;10096;-81
2021/12/25 03:26:21;;;;;;;;;20.00;17.50;;;;;;;;5044801;28;10250;-81
2021/12/25 03:28:53;;;;;;;;;30.00;25.75;;;;;;;;5043244;28;10207;-79
2021/12/25 03:31:21;;;;;;;;;33.25;27.50;;;;;;;;5043397;28;10149;-81
2021/12/25 03:33:52;;;;;;;;;27.00;25.00;;;;;;;;5043520;28;10219;-80
2021/12/25 03:36:19;;;;;;;;;26.25;25.50;;;;;;;;5039546;28;10065;-82
2021/12/25 03:38:48;;;;;;;;;22.25;22.25;;;;;;;;5035438;28;11052;-82
2021/12/25 03:41:17;;;;;;;;;31.00;24.50;;;;;;;;5033137;28;10140;-81
2021/12/25 03:43:45;;;;;;;;;19.25;19.25;;;;;;;;5043166;28;10409;-81
2021/12/25 03:46:16;;;;;;;;;29.00;24.50;;;;;;;;5043524;28;10042;-81
2021/12/25 03:59:40;;;;;;;;;19.50;18.50;;;;;;;;5037512;28;11360;-81
2021/12/25 04:02:16;;;;;;;;;19.50;18.75;;;;;;;;5040113;28;10112;-78
2021/12/25 04:04:47;;;;;;;;;29.75;28.50;;;;;;;;5040644;28;10057;-78
2021/12/25 04:07:28;;;;;;;;;25.50;25.50;;;;;;;;5024400;28;10116;-82
2021/12/25 04:10:00;;;;;;;;;29.25;28.25;;;;;;;;5043491;28;10055;-82
2021/12/25 04:12:28;;;;;;;;;28.50;26.25;;;;;;;;5041663;28;10103;-78
2021/12/25 04:14:55;;;;;;;;;30.00;25.00;;;;;;;;5041452;28;10151;-80
2021/12/25 04:17:24;;;;;;;;;35.50;30.25;;;;;;;;5044190;28;10004;-79
2021/12/25 04:19:52;;;;;;;;;26.75;24.75;;;;;;;;5037346;28;10216;-79
2021/12/25 04:22:25;;;;;;;;;22.25;21.00;;;;;;;;5043554;28;9885;-79
2021/12/25 04:24:53;;;;;;;;;27.75;23.25;;;;;;;;5039946;28;9979;-81
2021/12/25 04:27:21;;;;;;;;;24.75;23.00;;;;;;;;5037292;28;9968;-78
2021/12/25 04:29:53;;;;;;;;;21.50;19.75;;;;;;;;5041757;28;10045;-79
2021/12/25 05:03:09;;;;;;;;;18.00;15.25;;;;;;;;5035557;28;9782;-78
2021/12/25 05:05:37;;;;;;;;;20.50;18.75;;;;;;;;5043693;28;9990;-80
2021/12/25 05:08:07;;;;;;;;;16.75;16.75;;;;;;;;5046042;28;9916;-84
2021/12/25 05:10:35;;;;;;;;;18.00;18.00;;;;;;;;5047357;28;9950;-77
2021/12/25 05:13:02;;;;;;;;;22.50;20.00;;;;;;;;5040268;28;9808;-77
2021/12/25 05:15:30;;;;;;;;;21.75;19.25;;;;;;;;5042925;28;9893;-81
2021/12/25 05:17:57;;;;;;;;;14.00;14.00;;;;;;;;5037989;28;9941;-83
2021/12/25 05:20:25;;;;;;;;;26.25;20.75;;;;;;;;5045851;28;9975;-83
2021/12/25 05:22:52;;;;;;;;;18.50;17.75;;;;;;;;5047464;28;9959;-79
2021/12/25 05:25:21;;;;;;;;;24.25;22.00;;;;;;;;5043534;28;9877;-78
2021/12/25 05:27:49;;;;;;;;;21.75;19.00;;;;;;;;5045704;28;10067;-78
2021/12/25 05:30:18;;;;;;;;;29.25;24.50;;;;;;;;5045506;28;9966;-83
2021/12/25 05:32:46;;;;;;;;;27.75;26.50;;;;;;;;5047023;28;9969;-83
2021/12/25 05:35:13;;;;;;;;;24.50;23.50;;;;;;;;5038713;28;9940;-81
2021/12/25 05:37:40;;;;;;;;;20.50;19.25;;;;;;;;5043676;28;9979;-79
2021/12/25 05:40:11;;;;;;;;;30.00;25.00;;;;;;;;5044405;28;9787;-78
2021/12/25 05:42:40;;;;;;;;;20.75;20.75;;;;;;;;5036078;28;10041;-82
2021/12/25 05:45:10;;;;;;;;;21.00;20.00;;;;;;;;5037998;28;10009;-82
2021/12/25 05:47:37;;;;;;;;;19.25;19.25;;;;;;;;5044837;28;10033;-79
2021/12/25 05:50:05;;;;;;;;;23.25;19.25;;;;;;;;5046553;28;9880;-79
2021/12/25 05:52:32;;;;;;;;;23.25;21.50;;;;;;;;5043958;28;10048;-78
2021/12/25 05:55:00;;;;;;;;;17.75;17.75;;;;;;;;5045626;28;10050;-81
2021/12/25 05:57:27;;;;;;;;;27.50;22.75;;;;;;;;5042428;28;9956;-82
2021/12/25 05:59:56;;;;;;;;;22.00;22.00;;;;;;;;5039734;28;9975;-82
2021/12/25 06:02:23;;;;;;;;;24.75;22.75;;;;;;;;5037340;28;9847;-82
2021/12/25 06:04:50;;;;;;;;;27.50;25.25;;;;;;;;5043969;28;10074;-79
2021/12/25 06:07:17;;;;;;;;;24.50;24.50;;;;;;;;5045801;28;10061;-80
2021/12/25 06:09:45;;;;;;;;;27.75;24.50;;;;;;;;5043836;28;10166;-78
2021/12/25 06:12:14;;;;;;;;;28.25;28.00;;;;;;;;5040876;28;10231;-81
2021/12/25 06:14:44;;;;;;;;;20.75;18.00;;;;;;;;5044073;28;10120;-79
2021/12/25 06:17:12;;;;;;;;;18.75;18.75;;;;;;;;5041187;28;10101;-78
2021/12/25 06:19:40;;;;;;;;;15.50;13.25;;;;;;;;5039446;28;10027;-78
2021/12/25 06:22:07;;;;;;;;;16.00;16.00;;;;;;;;5034765;28;10121;-77
2021/12/25 06:24:35;;;;;;;;;17.25;17.25;;;;;;;;5040115;28;9938;-78
2021/12/25 06:27:02;;;;;;;;;22.00;20.25;;;;;;;;5043559;28;9884;-79
2021/12/25 06:29:30;;;;;;;;;19.75;19.75;;;;;;;;5042130;28;10080;-81
2021/12/25 06:31:59;;;;;;;;;23.50;21.00;;;;;;;;5040966;28;10706;-80
2021/12/25 06:34:27;;;;;;;;;28.25;24.75;;;;;;;;5042310;28;10078;-82
2021/12/25 06:36:55;;;;;;;;;29.75;25.00;;;;;;;;5041252;28;10055;-82
2021/12/25 06:39:22;;;;;;;;;30.75;26.25;;;;;;;;5044491;28;10209;-80
2021/12/25 06:41:49;;;;;;;;;28.75;26.50;;;;;;;;5041369;28;10139;-82
2021/12/25 06:44:23;;;;;;;;;34.50;29.25;;;;;;;;5037499;28;11009;-84
2021/12/25 06:46:51;;;;;;;;;29.00;28.25;;;;;;;;5048019;28;10481;-79
2021/12/25 06:49:18;;;;;;;;;25.00;22.50;;;;;;;;5039357;28;10096;-83
2021/12/25 06:51:47;;;;;;;;;24.75;24.50;;;;;;;;5038305;28;10077;-84
2021/12/25 06:54:14;;;;;;;;;35.00;31.75;;;;;;;;5032220;28;10090;-83
2021/12/25 06:56:43;;;;;;;;;30.00;28.25;;;;;;;;5037066;28;10233;-76
2021/12/25 06:59:11;;;;;;;;;39.00;35.00;;;;;;;;5034882;28;10134;-78
2021/12/25 07:01:38;;;;;;;;;34.75;34.75;;;;;;;;5036608;28;11374;-78
2021/12/25 07:04:06;;;;;;;;;33.75;33.75;;;;;;;;5037325;28;10983;-74
2021/12/25 07:06:34;;;;;;;;;37.50;34.25;;;;;;;;5033240;28;10403;-76
2021/12/25 07:09:05;;;;;;;;;37.00;34.25;;;;;;;;5041404;28;10181;-76
2021/12/25 07:11:32;;;;;;;;;38.50;36.00;;;;;;;;5033709;28;10327;-75
2021/12/25 07:14:02;;;;;;;;;41.50;34.75;;;;;;;;5033511;28;10986;-76
2021/12/25 07:16:29;;;;;;;;;36.75;34.75;;;;;;;;5036571;28;10411;-75
2021/12/25 07:18:57;;;;;;;;;47.50;40.00;;;;;;;;5043256;28;11235;-76
2021/12/25 07:21:24;;;;;;;;;39.50;34.25;;;;;;;;5032173;28;10576;-76
2021/12/25 07:23:52;;;;;;;;;43.75;37.00;;;;;;;;5042312;28;10393;-75
2021/12/25 07:26:21;;;;;;;;;46.75;39.50;;;;;;;;5030178;28;11856;-76
2021/12/25 07:28:49;;;;;;;;;43.00;39.00;;;;;;;;5036962;28;10556;-76
2021/12/25 07:31:18;;;;;;;;;41.00;36.50;;;;;;;;5039924;28;11401;-72
2021/12/25 07:33:45;;;;;;;;;44.00;40.00;;;;;;;;5038566;28;10450;-74
2021/12/25 07:36:14;;;;;;;;;49.75;42.75;;;;;;;;5039668;28;10594;-74
2021/12/25 07:38:41;;;;;;;;;55.25;43.50;;;;;;;;5037805;28;11666;-75
2021/12/25 07:41:09;;;;;;;;;36.00;34.50;;;;;;;;5032621;28;10861;-77
2021/12/25 07:43:38;;;;;;;;;60.00;42.25;;;;;;;;5034237;28;10551;-76
2021/12/25 07:46:06;;;;;;;;;39.75;37.50;;;;;;;;5037311;28;10826;-77
2021/12/25 07:48:34;;;;;;;;;39.50;36.75;;;;;;;;5041870;28;10640;-74
2021/12/25 07:51:02;;;;;;;;;37.50;36.00;;;;;;;;5034940;28;10725;-78
2021/12/25 07:53:31;;;;;;;;;35.75;34.75;;;;;;;;5034129;28;10435;-76
2021/12/25 07:55:58;;;;;;;;;45.50;40.50;;;;;;;;5039814;28;10460;-78
2021/12/25 07:58:25;;;;;;;;;43.75;39.50;;;;;;;;5034631;28;10625;-81
2021/12/25 08:00:54;;;;;;;;;45.75;39.50;;;;;;;;5030929;28;10421;-77
2021/12/25 08:03:22;;;;;;;;;42.75;38.00;;;;;;;;5041083;28;10689;-76
2021/12/25 08:05:50;;;;;;;;;40.25;36.50;;;;;;;;5039581;28;10437;-77
2021/12/25 08:08:17;;;;;;;;;34.25;34.25;;;;;;;;5043110;28;10530;-73
2021/12/25 08:10:45;;;;;;;;;41.00;35.50;;;;;;;;5038881;28;10326;-75
2021/12/25 08:13:15;;;;;;;;;49.25;40.50;;;;;;;;5040247;28;11144;-77
2021/12/25 08:15:43;;;;;;;;;34.75;32.75;;;;;;;;5040603;28;10725;-74
2021/12/25 08:18:12;;;;;;;;;38.75;33.50;;;;;;;;5039254;28;10512;-75
2021/12/25 08:20:40;;;;;;;;;39.00;33.50;;;;;;;;5037141;28;10473;-79
2021/12/25 08:23:08;;;;;;;;;39.00;33.00;;;;;;;;5036524;28;10595;-81
2021/12/25 08:25:35;;;;;;;;;31.00;29.75;;;;;;;;5031611;28;11157;-72
2021/12/25 08:28:03;;;;;;;;;36.75;33.00;;;;;;;;5041637;28;10356;-76
2021/12/25 08:30:30;;;;;;;;;39.75;34.75;;;;;;;;5036434;28;10380;-77
2021/12/25 08:32:59;;;;;;;;;38.75;35.75;;;;;;;;5036812;28;10376;-75
2021/12/25 08:35:29;;;;;;;;;41.75;35.75;;;;;;;;5038753;28;11250;-75
2021/12/25 08:37:57;;;;;;;;;35.00;33.25;;;;;;;;5038817;28;10419;-76
2021/12/25 08:40:25;;;;;;;;;31.50;31.50;;;;;;;;5035626;28;10428;-74
2021/12/25 08:42:58;;;;;;;;;35.75;33.50;;;;;;;;5040527;28;10462;-75
2021/12/25 08:45:40;;;;;;;;;29.75;29.25;;;;;;;;5041355;28;11310;-75
2021/12/25 08:48:11;;;;;;;;;43.50;38.50;;;;;;;;5043454;28;10421;-75
2021/12/25 08:50:41;;;;;;;;;39.25;37.75;;;;;;;;5041182;28;10544;-77
2021/12/25 08:53:08;;;;;;;;;37.00;33.75;;;;;;;;5043623;28;10567;-75
2021/12/25 08:55:36;;;;;;;;;40.25;38.00;;;;;;;;5043652;28;10345;-76
2021/12/25 08:58:03;;;;;;;;;44.75;38.25;;;;;;;;5040178;28;11481;-74
2021/12/25 09:00:31;;;;;;;;;34.00;34.00;;;;;;;;5042265;28;10738;-74
2021/12/25 09:02:58;;;;;;;;;46.00;39.75;;;;;;;;5043416;28;11603;-74
2021/12/25 09:05:25;;;;;;;;;41.25;37.50;;;;;;;;5045351;28;10550;-74
2021/12/25 09:07:54;;;;;;;;;47.25;41.50;;;;;;;;5045544;28;11125;-77
2021/12/25 09:10:22;;;;;;;;;59.75;48.50;;;;;;;;5039732;28;10452;-75
2021/12/25 09:12:50;;;;;;;;;58.25;49.25;;;;;;;;5044238;28;11071;-74
2021/12/25 09:15:18;;;;;;;;;53.25;44.25;;;;;;;;5038210;28;11184;-73
2021/12/25 09:17:46;;;;;;;;;55.00;47.00;;;;;;;;5044602;28;11006;-75
2021/12/25 09:20:17;;;;;;;;;42.75;38.75;;;;;;;;5044405;28;11013;-74
2021/12/25 09:22:44;;;;;;;;;34.50;33.00;;;;;;;;5038930;28;10905;-74
2021/12/25 09:25:13;;;;;;;;;44.75;40.50;;;;;;;;5041343;28;10555;-73
2021/12/25 09:27:42;;;;;;;;;42.50;39.75;;;;;;;;5044140;28;10751;-74
2021/12/25 09:30:10;;;;;;;;;54.25;41.00;;;;;;;;5042676;28;10507;-73
2021/12/25 09:32:38;;;;;;;;;46.25;35.50;;;;;;;;5041377;28;10652;-73
2021/12/25 09:35:06;;;;;;;;;139.50;129.75;;;;;;;;5043076;28;10920;-76
2021/12/25 09:37:33;;;;;;;;;56.25;43.00;;;;;;;;5039757;28;11654;-72
2021/12/25 09:40:01;;;;;;;;;77.00;63.75;;;;;;;;5043902;28;10890;-73
2021/12/25 09:42:29;;;;;;;;;50.00;40.50;;;;;;;;5039303;28;11539;-73
2021/12/25 09:44:57;;;;;;;;;55.25;45.25;;;;;;;;5043030;28;10563;-74
2021/12/25 09:47:25;;;;;;;;;79.50;62.00;;;;;;;;5040968;28;10812;-75
2021/12/25 09:49:53;;;;;;;;;52.75;41.25;;;;;;;;5043235;28;11556;-73
2021/12/25 09:52:21;;;;;;;;;47.50;42.50;;;;;;;;5040983;28;11151;-74
2021/12/25 09:54:49;;;;;;;;;44.50;39.75;;;;;;;;5041393;28;11385;-73
2021/12/25 09:57:16;;;;;;;;;47.50;41.00;;;;;;;;5039947;28;10431;-74
2021/12/25 09:59:46;;;;;;;;;57.75;42.50;;;;;;;;5040637;28;11223;-75
2021/12/25 10:02:16;;;;;;;;;58.50;46.75;;;;;;;;5041829;28;10735;-77
2021/12/25 10:04:47;;;;;;;;;50.50;42.25;;;;;;;;5040666;28;10839;-75
2021/12/25 10:07:21;;;;;;;;;48.50;41.50;;;;;;;;5035039;28;10362;-76
2021/12/25 10:09:56;;;;;;;;;56.25;45.00;;;;;;;;5038583;28;10596;-74
2021/12/25 10:12:29;;;;;;;;;55.75;45.50;;;;;;;;5038437;28;10689;-75
2021/12/25 10:14:59;;;;;;;;;53.50;42.50;;;;;;;;5041020;28;10846;-73
2021/12/25 10:17:28;;;;;;;;;44.75;39.75;;;;;;;;5036067;28;11537;-74
2021/12/25 10:20:11;;;;;;;;;61.00;48.75;;;;;;;;5039621;28;10425;-74
2021/12/25 10:22:56;;;;;;;;;30.25;24.00;;;;;;;;5037783;28;10933;-74
2021/12/25 10:25:27;;;;;;;;;42.00;39.25;;;;;;;;5032319;28;10464;-73
2021/12/25 10:27:56;;;;;;;;;18.50;16.50;;;;;;;;5042119;28;11066;-74
2021/12/25 10:30:25;;;;;;;;;45.75;38.00;;;;;;;;5041932;28;10328;-76
2021/12/25 10:32:53;;;;;;;;;45.75;40.75;;;;;;;;5043902;28;10286;-73
2021/12/25 10:35:25;;;;;;;;;44.75;37.00;;;;;;;;5041914;28;10129;-74
2021/12/25 10:37:53;;;;;;;;;31.00;29.00;;;;;;;;5045305;28;9957;-75
2021/12/25 10:40:27;;;;;;;;;22.25;21.00;;;;;;;;5043149;28;9901;-74
2021/12/25 10:42:56;;;;;;;;;26.00;26.00;;;;;;;;5044731;28;9785;-74
2021/12/25 10:45:26;;;;;;;;;50.25;43.00;;;;;;;;5041197;28;9732;-74
2021/12/25 10:48:06;;;;;;;;;29.75;23.75;;;;;;;;5037456;28;10599;-73
2021/12/25 10:50:41;;;;;;;;;30.75;29.75;;;;;;;;5040370;28;10040;-76
2021/12/25 10:53:26;;;;;;;;;34.00;31.50;;;;;;;;5040724;28;9967;-78
2021/12/25 10:55:54;;;;;;;;;53.50;41.50;;;;;;;;5038173;28;10617;-76
2021/12/25 10:58:23;;;;;;;;;32.25;30.75;;;;;;;;5039544;28;11354;-76
2021/12/25 11:00:55;;;;;;;;;29.25;29.25;;;;;;;;5035012;28;9904;-75
2021/12/25 11:03:34;;;;;;;;;31.75;30.50;;;;;;;;5037153;28;10024;-75
2021/12/25 11:06:05;;;;;;;;;32.00;30.75;;;;;;;;5038281;28;9983;-75
2021/12/25 11:08:32;;;;;;;;;61.75;49.50;;;;;;;;5040632;28;9943;-76
2021/12/25 11:11:02;;;;;;;;;67.50;55.25;;;;;;;;5042020;28;10749;-76
2021/12/25 11:13:30;;;;;;;;;40.25;32.00;;;;;;;;5037281;28;11011;-75
2021/12/25 11:16:05;;;;;;;;;25.25;25.25;;;;;;;;5041783;28;9916;-75
2021/12/25 11:18:50;;;;;;;;;31.25;28.00;;;;;;;;5046026;28;9994;-73
2021/12/25 11:21:18;;;;;;;;;27.75;25.00;;;;;;;;5036855;28;9726;-74
2021/12/25 11:23:46;;;;;;;;;20.75;20.75;;;;;;;;5039382;28;9623;-73
2021/12/25 11:26:13;;;;;;;;;24.33;18.67;;;;;;;;5041591;28;9591;-73
2021/12/25 11:28:43;;;;;;;;;30.00;27.00;;;;;;;;5038948;28;10713;-76
2021/12/25 11:31:12;;;;;;;;;34.25;29.75;;;;;;;;5036612;28;9730;-74
2021/12/25 11:33:40;;;;;;;;;31.75;26.25;;;;;;;;5039291;28;9787;-71
2021/12/25 11:36:07;;;;;;;;;33.50;31.00;;;;;;;;5037599;28;9655;-73
2021/12/25 11:38:34;;;;;;;;;47.25;40.25;;;;;;;;5041359;28;9798;-74
2021/12/25 11:41:07;;;;;;;;;41.50;38.00;;;;;;;;5040528;28;10130;-73
2021/12/25 11:43:40;;;;;;;;;39.75;32.50;;;;;;;;5041687;28;11150;-79
2021/12/25 11:46:08;;;;;;;;;33.75;31.50;;;;;;;;5045453;28;9941;-75
2021/12/25 11:48:38;;;;;;;;;42.75;39.50;;;;;;;;5041696;28;9887;-73
2021/12/25 11:51:06;;;;;;;;;30.50;23.75;;;;;;;;5038186;28;10271;-72
2021/12/25 11:54:04;;;;;;;;;24.67;20.33;;;;;;;;5042321;28;9681;-72
2021/12/25 11:56:37;;;;;;;;;51.50;39.00;;;;;;;;5040281;28;9410;-72
2021/12/25 11:59:12;;;;;;;;;43.75;38.75;;;;;;;;5043049;28;10237;-74
2021/12/25 12:01:45;;;;;;;;;25.00;19.00;;;;;;;;5038896;28;10239;-75
2021/12/25 12:04:18;;;;;;;;;16.67;16.67;;;;;;;;5042029;28;9581;-73
2021/12/25 12:07:13;;;;;;;;;13.67;13.67;;;;;;;;5041328;28;9470;-74
2021/12/25 12:09:55;;;;;;;;;38.75;34.00;;;;;;;;5021035;28;9588;-75
2021/12/25 12:12:24;;;;;;;;;30.75;25.50;;;;;;;;5043093;28;10219;-72
2021/12/25 12:15:21;;;;;;;;;37.00;34.75;;;;;;;;5042199;28;9734;-72
2021/12/25 12:17:49;;;;;;;;;30.00;27.75;;;;;;;;4978937;28;10131;-73
2021/12/25 12:20:36;;;;;;;;;41.50;37.50;;;;;;;;5026779;28;9720;-75
2021/12/25 12:23:38;;;;;;;;;46.25;40.00;;;;;;;;5040316;28;10030;-74
2021/12/25 12:26:09;;;;;;;;;161.33;152.00;;;;;;;;5034370;28;10396;-73
2021/12/25 12:28:48;;;;;;;;;52.00;41.50;;;;;;;;5041559;28;9597;-74
2021/12/25 12:31:38;;;;;;;;;76.50;59.50;;;;;;;;5038348;28;10964;-73
2021/12/25 12:34:33;;;;;;;;;28.25;28.25;;;;;;;;5040748;28;11558;-73
2021/12/25 12:37:31;;;;;;;;;24.33;18.67;;;;;;;;5033462;28;9825;-73
2021/12/25 12:40:34;;;;;;;;;29.00;27.50;;;;;;;;5030030;28;10248;-74
2021/12/25 12:43:03;;;;;;;;;18.00;18.00;;;;;;;;5030555;28;9663;-74
2021/12/25 12:45:35;;;;;;;;;19.00;14.67;;;;;;;;5037028;28;9338;-74
2021/12/25 12:48:11;;;;;;;;;16.67;15.00;;;;;;;;5034997;28;9211;-73
2021/12/25 12:50:39;;;;;;;;;43.50;39.00;;;;;;;;5039380;28;9286;-73
2021/12/25 12:53:09;;;;;;;;;37.75;34.25;;;;;;;;5034495;28;10155;-75
2021/12/25 12:55:39;;;;;;;;;30.67;24.67;;;;;;;;5039607;28;9786;-73
2021/12/25 12:58:14;;;;;;;;;59.75;48.00;;;;;;;;5039268;28;9377;-73
2021/12/25 13:00:43;;;;;;;;;53.75;45.75;;;;;;;;5038935;28;10499;-73
2021/12/25 13:03:11;;;;;;;;;122.50;117.50;;;;;;;;5039654;28;11964;-73
2021/12/25 13:05:41;;;;;;;;;41.00;38.25;;;;;;;;5040348;28;11652;-76
2021/12/25 13:08:13;;;;;;;;;55.00;46.00;;;;;;;;5034642;28;10692;-75
2021/12/25 13:10:47;;;;;;;;;60.25;47.00;;;;;;;;5040906;28;10678;-74
2021/12/25 13:13:18;;;;;;;;;19.00;19.00;;;;;;;;5038485;28;10399;-72
2021/12/25 13:15:48;;;;;;;;;31.50;31.00;;;;;;;;5034660;28;9185;-73
2021/12/25 13:18:17;;;;;;;;;17.33;17.33;;;;;;;;5040083;28;10051;-74
2021/12/25 13:20:46;;;;;;;;;16.00;13.67;;;;;;;;5035514;28;9186;-73
2021/12/25 13:23:15;;;;;;;;;15.33;15.33;;;;;;;;5039598;28;9050;-74
2021/12/25 13:25:52;;;;;;;;;19.67;16.00;;;;;;;;5037983;28;9106;-73
2021/12/25 13:28:23;;;;;;;;;20.00;17.33;;;;;;;;5034961;28;9232;-76
2021/12/25 13:30:52;;;;;;;;;20.67;20.33;;;;;;;;5037153;28;9363;-74
2021/12/25 13:33:22;;;;;;;;;16.67;15.00;;;;;;;;5045050;28;9398;-73
2021/12/25 13:35:58;;;;;;;;;40.25;37.75;;;;;;;;5042662;28;10106;-72
2021/12/25 13:38:26;;;;;;;;;45.25;38.50;;;;;;;;5041496;28;9904;-74
2021/12/25 13:40:55;;;;;;;;;38.25;36.50;;;;;;;;5042989;28;10256;-75
2021/12/25 13:43:23;;;;;;;;;40.50;31.50;;;;;;;;5045125;28;10013;-75
2021/12/25 13:45:58;;;;;;;;;13.67;11.33;;;;;;;;5039619;28;10547;-73
2021/12/25 13:48:26;;;;;;;;;19.33;17.67;;;;;;;;5042641;28;9198;-75
2021/12/25 13:51:00;;;;;;;;;19.50;19.50;;;;;;;;5039401;28;9363;-73
2021/12/25 13:53:29;;;;;;;;;4.00;3.00;;;;;;;;5040506;28;9689;-72
2021/12/25 13:55:57;;;;;;;;;13.00;12.00;;;;;;;;5039929;28;9026;-73
2021/12/25 13:58:28;;;;;;;;;8.00;8.00;;;;;;;;5037483;28;9359;-75
2021/12/25 14:00:55;;;;;;;;;6.00;4.00;;;;;;;;5042403;28;9047;-76
2021/12/25 14:03:24;;;;;;;;;5.75;5.75;;;;;;;;5038781;28;8981;-75
2021/12/25 14:05:54;;;;;;;;;5.00;4.50;;;;;;;;5041208;28;8893;-71
2021/12/25 14:08:23;;;;;;;;;8.00;8.00;;;;;;;;5040922;28;8913;-76
2021/12/25 14:10:50;;;;;;;;;8.00;7.00;;;;;;;;5042773;28;9132;-74
2021/12/25 14:13:19;;;;;;;;;9.00;9.00;;;;;;;;5037806;28;9213;-72
2021/12/25 14:15:51;;;;;;;;;9.67;8.67;;;;;;;;5037878;28;9126;-72
2021/12/25 14:18:20;;;;;;;;;9.33;9.33;;;;;;;;5040129;28;9554;-75
2021/12/25 14:20:47;;;;;;;;;13.33;9.00;;;;;;;;5038677;28;9060;-73
2021/12/25 14:23:18;;;;;;;;;9.00;7.67;;;;;;;;5038671;28;9127;-71
2021/12/25 14:25:53;;;;;;;;;17.33;14.00;;;;;;;;5043952;28;9099;-73
2021/12/25 14:28:22;;;;;;;;;13.33;9.67;;;;;;;;5043892;28;9194;-75
2021/12/25 14:31:01;;;;;;;;;12.00;12.00;;;;;;;;5041166;28;9195;-75
2021/12/25 14:33:29;;;;;;;;;19.00;15.67;;;;;;;;5043668;28;9261;-74
2021/12/25 14:35:57;;;;;;;;;18.25;15.50;;;;;;;;5044616;28;10214;-75
2021/12/25 14:38:25;;;;;;;;;20.00;18.75;;;;;;;;5035021;28;9387;-73
2021/12/25 14:40:53;;;;;;;;;19.75;17.00;;;;;;;;5038108;28;9578;-72
2021/12/25 14:43:28;;;;;;;;;21.50;21.25;;;;;;;;5042096;28;9747;-74
2021/12/25 14:45:56;;;;;;;;;26.75;23.25;;;;;;;;5039435;28;9677;-74
2021/12/25 14:48:30;;;;;;;;;21.00;19.75;;;;;;;;5043978;28;9725;-74
2021/12/25 14:50:59;;;;;;;;;26.00;21.25;;;;;;;;5036888;28;9637;-72
2021/12/25 14:53:27;;;;;;;;;14.25;13.75;;;;;;;;5040715;28;9722;-73
2021/12/25 14:55:58;;;;;;;;;22.00;20.50;;;;;;;;5040021;28;9579;-74
2021/12/25 14:58:28;;;;;;;;;17.50;15.00;;;;;;;;5043363;28;9657;-74
2021/12/25 15:01:07;;;;;;;;;24.75;22.50;;;;;;;;5038080;28;10319;-72
2021/12/25 15:03:37;;;;;;;;;22.25;22.25;;;;;;;;5038903;28;9740;-74
2021/12/25 15:06:18;;;;;;;;;25.25;23.50;;;;;;;;5036720;28;9630;-72
2021/12/25 15:08:45;;;;;;;;;25.00;25.00;;;;;;;;5037534;28;9673;-71
2021/12/25 15:11:15;;;;;;;;;22.75;20.75;;;;;;;;5041378;28;9712;-75
2021/12/25 15:13:44;;;;;;;;;23.00;20.75;;;;;;;;5041401;28;9489;-71
2021/12/25 15:16:12;;;;;;;;;28.75;25.25;;;;;;;;5042648;28;9721;-72
2021/12/25 15:18:42;;;;;;;;;25.00;23.25;;;;;;;;5037819;28;9681;-72
2021/12/25 15:21:18;;;;;;;;;29.00;26.75;;;;;;;;5038612;28;9582;-73
2021/12/25 15:23:47;;;;;;;;;27.75;25.75;;;;;;;;5041495;28;9737;-75
2021/12/25 15:26:17;;;;;;;;;25.50;20.00;;;;;;;;5037672;28;9603;-73
2021/12/25 15:28:56;;;;;;;;;25.50;24.00;;;;;;;;5040430;28;9634;-75
2021/12/25 15:31:25;;;;;;;;;27.75;23.50;;;;;;;;5041495;28;9579;-71
2021/12/25 15:33:56;;;;;;;;;33.50;32.00;;;;;;;;5041080;28;10482;-73